Flight Track Log - Related Links

Times and Time Zones

All times are in EDT time to prevent confusion due to time zone crossing. See the ASQ5678 flight status page for this flight to view local times or setup timezone preferences in your user account.

Time Position Orientation Groundspeed Altitude Reporting Facility
EDT Latitude Longitude Course Direction KTS MPH feet Rate Location/Type
Wed 07:15:35 PM 40.6667 -74.2333 287° West 200 230 2,000  Level New York TRACON
Wed 07:16:35 PM 40.7000 -74.3000 303° West 258 297 4,000 2,504 Climbing New York TRACON
Wed 07:17:30 PM 40.7500 -74.3667 315° West 256 295 6,800 2,700 Climbing New York TRACON
Wed 07:18:35 PM 40.7833 -74.4667 294° West 256 295 9,400 2,160 Climbing New York TRACON
Wed 07:19:35 PM 40.8000 -74.5500 285° West 268 308 11,300 1,852 Climbing New York TRACON
Wed 07:20:00 PM 40.8460 -74.8826 287° West  Level FlightAware Approximate
Wed 07:21:04 PM 40.8275 -74.7008 284° West 287 330 14,000  Level New York Center
Wed 07:22:04 PM 40.8472 -74.7953 285° West 287 330 15,700 1,636 Climbing New York Center
Wed 07:23:05 PM 40.8664 -74.9033 283° West 298 343 17,300 1,815 Climbing New York Center
Wed 07:24:03 PM 40.8894 -75.0147 285° West 298 343 19,300 1,866 Climbing New York Center
Wed 07:25:04 PM 40.9106 -75.1203 285° West 298 343 21,000 1,525 Climbing New York Center
Wed 07:26:05 PM 40.9067 -75.2297 267° West 298 343 22,400 1,240 Climbing New York Center
Wed 07:27:05 PM 40.8794 -75.3378 252° West 303 349 23,500 1,068 Climbing New York Center
Wed 07:28:03 PM 40.8519 -75.4567 253° West 325 374 24,500 1,008 Climbing New York Center
Wed 07:29:04 PM 40.8242 -75.5783 253° West 344 396 25,500 992 Climbing New York Center
Wed 07:30:04 PM 40.7939 -75.7050 253° West 355 409 26,500 1,041 Climbing New York Center
Wed 07:31:05 PM 40.7636 -75.8342 253° West 361 415 27,600 1,008 Climbing New York Center
Wed 07:32:03 PM 40.7331 -75.9581 252° West 361 415 28,500 915 Climbing New York Center
Wed 07:33:03 PM 40.7167 -76.0936 261° West 361 415 29,400 689 Climbing New York Center
Wed 07:34:05 PM 40.7083 -76.2328 266° West 372 428 29,900 500 Climbing New York Center
Wed 07:35:03 PM 40.6972 -76.3769 264° West 388 447 30,400 508 Climbing New York Center
Wed 07:36:03 PM 40.6881 -76.5239 265° West 401 461 30,900 500 Climbing New York Center
Wed 07:37:03 PM 40.6764 -76.6789 264° West 413 475 31,400 500 Climbing New York Center
Wed 07:38:03 PM 40.6644 -76.8339 264° West 423 487 31,900 298 Climbing New York Center
Wed 07:39:04 PM 40.6550 -76.9753 265° West 423 487 32,000 50 Climbing New York Center
Wed 07:40:04 PM 40.6422 -77.1383 264° West 435 501 32,000  Level New York Center
Wed 07:41:05 PM 40.6311 -77.3014 265° West 448 516 32,000  Level New York Center
Wed 07:42:59 PM 40.6042 -77.6267 264° West 433 498 32,000  Level Cleveland Center
Wed 07:43:59 PM 40.5917 -77.7858 264° West 433 498 32,000  Level Cleveland Center
Wed 07:44:59 PM 40.5786 -77.9478 264° West 439 505 32,000  Level Cleveland Center
Wed 07:45:59 PM 40.5656 -78.1042 264° West 444 511 32,000  Level Cleveland Center
Wed 07:46:59 PM 40.5503 -78.2631 263° West 444 511 32,000  Level Cleveland Center
Wed 07:47:59 PM 40.5386 -78.4247 265° West 444 511 32,000  Level Cleveland Center
Wed 07:48:59 PM 40.5231 -78.5864 263° West 444 511 32,000  Level Cleveland Center
Wed 07:49:59 PM 40.5089 -78.7508 264° West 444 511 32,000  Level Cleveland Center
Wed 07:50:59 PM 40.4928 -78.9150 263° West 449 517 32,000  Level Cleveland Center
Wed 07:51:59 PM 40.4783 -79.0792 263° West 449 517 32,000  Level Cleveland Center
Wed 07:52:59 PM 40.4636 -79.2458 263° West 454 522 32,000  Level Cleveland Center
Wed 07:53:59 PM 40.4531 -79.4125 265° West 460 529 32,000  Level Cleveland Center
Wed 07:54:59 PM 40.4400 -79.5819 264° West 465 535 32,000  Level Cleveland Center
Wed 07:55:59 PM 40.4269 -79.7458 264° West 465 535 32,000  Level Cleveland Center
Wed 07:56:59 PM 40.4133 -79.9069 264° West 460 529 32,000  Level Cleveland Center
Wed 07:57:59 PM 40.4014 -80.0350 263° West 454 522 32,000  Level Cleveland Center
Wed 07:58:59 PM 40.3814 -80.2289 262° West 449 517 32,000  Level Cleveland Center
Wed 07:59:59 PM 40.3733 -80.3733 266° West 449 517 32,000  Level Cleveland Center
Wed 08:00:59 PM 40.3589 -80.5342 263° West 449 517 32,000  Level Cleveland Center
Wed 08:01:59 PM 40.3444 -80.6975 263° West 449 517 32,000  Level Cleveland Center
Wed 08:02:59 PM 40.3275 -80.8636 262° West 449 517 32,000  Level Cleveland Center
Wed 08:03:59 PM 40.3122 -81.0242 263° West 449 517 32,000  Level Cleveland Center
Wed 08:04:44 PM 40.2986 -81.1383 261° West 437 503 32,000  Level Indianapolis Center
Wed 08:05:45 PM 40.2833 -81.3011 263° West 443 510 32,000  Level Indianapolis Center
Wed 08:06:47 PM 40.2622 -81.4664 261° West 456 525 32,000  Level Indianapolis Center
Wed 08:07:48 PM 40.2278 -81.6561 257° West 454 522 32,000 -49 Level Indianapolis Center
Wed 08:08:49 PM 40.2000 -81.8036 256° West 447 514 31,900  Descending Indianapolis Center
Wed 08:09:51 PM 40.1700 -81.9619 256° West 444 511 32,000 49 Climbing Indianapolis Center
Wed 08:10:52 PM 40.1436 -82.1108 257° West 422 486 32,000 -49 Level Indianapolis Center
Wed 08:11:53 PM 40.1172 -82.2453 256° West 385 443 31,900 -49 Descending Indianapolis Center
Wed 08:12:55 PM 40.0933 -82.3731 256° West 362 417 31,900 49 Level Indianapolis Center
Wed 08:13:56 PM 40.0697 -82.4961 256° West 348 400 32,000 -98 Climbing Indianapolis Center
Wed 08:14:57 PM 40.0458 -82.6197 256° West 348 400 31,700 -1,220 Descending Indianapolis Center
Wed 08:15:59 PM 40.0161 -82.7736 256° West 370 426 29,500 -2,049 Descending Indianapolis Center
Wed 08:17:00 PM 39.9925 -82.9008 256° West 359 413 27,500 -2,049 Descending Indianapolis Center
Wed 08:18:02 PM 39.9653 -83.0292 255° West 363 418 25,300 -1,902 Descending Indianapolis Center
Wed 08:19:03 PM 39.9181 -83.1467 242° Southwest 363 418 23,600 -1,672 Descending Indianapolis Center
Wed 08:20:04 PM 39.8661 -83.2683 241° Southwest 376 433 21,900 -1,805 Descending Indianapolis Center
Wed 08:21:06 PM 39.8164 -83.3853 241° Southwest 366 421 19,900 -2,049 Descending Indianapolis Center
Wed 08:22:07 PM 39.7689 -83.4950 241° Southwest 335 386 17,700 -2,066 Descending Indianapolis Center
Wed 08:23:08 PM 39.7258 -83.5972 241° Southwest 320 368 15,700 -1,951 Descending Indianapolis Center
Wed 08:24:10 PM 39.6850 -83.6931 241° Southwest 304 350 13,700 -1,854 Descending Indianapolis Center
Wed 08:25:11 PM 39.6456 -83.7856 241° Southwest 292 336 11,900 -1,317 Descending Indianapolis Center
Wed 08:26:13 PM 39.6042 -83.8806 241° Southwest 296 341 11,000 -488 Descending Indianapolis Center
Wed 08:27:14 PM 39.5400 -83.9822 231° Southwest 352 405 10,900 -49 Descending Indianapolis Center
Wed 08:28:15 PM 39.4689 -84.0819 227° Southwest 371 427 10,900 -341 Level Indianapolis Center
Wed 08:29:17 PM 39.4044 -84.1711 227° Southwest 339 390 10,200 -829 Descending Indianapolis Center
Wed 08:30:18 PM 39.3628 -84.2578 238° Southwest 290 334 9,200 -1,024 Descending Indianapolis Center
Wed 08:31:20 PM 39.3275 -84.3461 243° Southwest 277 319 8,100 -1,268 Descending Indianapolis Center
Wed 08:32:21 PM 39.2919 -84.4322 242° Southwest 272 313 6,600 -1,426 Descending Indianapolis Center
Wed 08:33:22 PM 39.2808 -84.5194 261° West 253 291 5,200 -1,415 Descending Indianapolis Center
Wed 08:34:24 PM 39.2736 -84.6050 264° West 244 281 3,700 -1,122 Descending Indianapolis Center
Wed 08:35:25 PM 39.2217 -84.6650 222° Southwest 235 270 2,900 -492 Descending Indianapolis Center
Wed 08:36:26 PM 39.1661 -84.6675 182° South 209 241 2,700 -146 Descending Indianapolis Center
Wed 08:37:28 PM 39.1147 -84.6683 181° South 206 237 2,600 -97 Descending Indianapolis Center
Wed 08:39:00 PM 39.0488 -84.6678 180° South  Level Estimated
Wed 08:46:00 PM 39.0488 -84.6678 180° South  Level Estimated
Wed 08:47:00 PM 39.0488 -84.6678 180° South  Level Estimated

Login

Don't have an account? Register now (free) for customized features, flight alerts, and more!